Time;durP1;ratioP1;P1;durP2;ratioP2;P2;SDS_P1;SDS_P2;PMS_P1;PMS_P2;Temp;Humidity;BMP_temperature;BMP_pressure;BME280_temperature;BME280_humidity;BME280_pressure;Samples;Min_cycle;Max_cycle;Signal;HPM_P1;HPM_P2
2022/02/03 07:34:13;;;;;;;;;4.25;4.00;;;;;16.82;62.94;101664.59;5067981;27;45693;-74
2022/02/03 07:36:39;;;;;;;;;6.50;4.00;;;;;16.99;63.04;101663.47;5078620;27;46078;-77
2022/02/03 07:39:06;;;;;;;;;7.00;4.25;;;;;17.20;63.17;101681.78;5056008;27;45476;-75
2022/02/03 07:41:32;;;;;;;;;6.25;3.25;;;;;17.44;63.10;101673.03;5062560;27;45916;-75
2022/02/03 07:43:57;;;;;;;;;6.00;4.00;;;;;17.74;62.71;101671.88;5056965;27;45478;-74
2022/02/03 07:46:23;;;;;;;;;8.25;5.00;;;;;18.03;61.95;101652.84;5064428;27;45973;-74
2022/02/03 07:48:51;;;;;;;;;3.00;3.00;;;;;18.33;61.90;101649.91;5056967;27;45503;-73
2022/02/03 07:51:17;;;;;;;;;4.33;2.00;;;;;18.64;61.75;101647.69;5064118;27;45393;-73
2022/02/03 07:53:42;;;;;;;;;5.00;3.67;;;;;18.90;60.76;101639.47;5036394;28;47895;-73
2022/02/03 07:56:08;;;;;;;;;7.67;4.33;;;;;19.18;60.64;101642.78;5048850;28;45715;-77
2022/02/03 07:58:33;;;;;;;;;10.33;4.33;;;;;19.42;59.76;101648.09;5050433;27;45635;-76
2022/02/03 08:00:59;;;;;;;;;5.00;4.67;;;;;19.64;58.90;101650.97;5047826;27;45932;-77
2022/02/03 08:03:24;;;;;;;;;5.33;4.00;;;;;19.80;58.06;101646.09;5040969;27;46025;-77
2022/02/03 08:05:56;;;;;;;;;5.67;3.33;;;;;20.00;58.47;101658.00;5049423;27;45691;-76
2022/02/03 08:11:06;;;;;;;;;4.33;3.67;;;;;20.32;57.91;101647.44;5067473;27;45600;-75
2022/02/03 08:13:44;;;;;;;;;10.00;7.00;;;;;20.48;57.12;101638.97;5062310;27;47932;-74
2022/02/03 08:16:25;;;;;;;;;4.00;4.00;;;;;20.63;56.94;101645.78;5065202;27;45344;-74
2022/02/03 08:18:58;;;;;;;;;4.00;4.00;;;;;20.79;57.23;101647.19;5065262;27;45792;-75
2022/02/03 08:21:23;;;;;;;;;4.00;4.00;;;;;20.91;57.15;101658.84;5066373;27;46533;-74
2022/02/03 08:31:39;;;;;;;;;5.33;4.00;;;;;21.30;56.09;101663.69;5064187;27;45629;-74
2022/02/03 08:34:04;;;;;;;;;5.67;4.00;;;;;21.37;55.82;101654.06;5054659;27;46475;-74
2022/02/03 08:36:34;;;;;;;;;3.00;3.00;;;;;21.44;55.55;101646.28;5045884;27;45548;-75
2022/02/03 08:39:05;;;;;;;;;6.67;3.00;;;;;21.51;54.79;101655.59;5066411;27;45432;-76
2022/02/03 08:41:30;;;;;;;;;5.00;3.67;;;;;21.57;54.85;101644.25;5063130;27;49882;-79
2022/02/03 08:43:55;;;;;;;;;4.67;3.33;;;;;21.63;55.15;101647.41;5034283;27;45931;-74
2022/02/03 08:46:25;;;;;;;;;3.00;2.33;;;;;21.68;55.08;101650.56;5022314;27;45956;-75
2022/02/03 08:48:51;;;;;;;;;4.00;3.67;;;;;21.74;54.35;101643.78;5048066;27;46882;-77
2022/02/03 08:51:17;;;;;;;;;4.00;2.33;;;;;21.78;54.16;101648.78;5033527;28;45427;-74
2022/02/03 08:53:47;;;;;;;;;4.00;4.00;;;;;21.84;54.83;101636.59;5027919;28;46596;-72
2022/02/03 09:58:23;;;;;;;;;2.67;2.67;;;;;22.98;52.75;101593.94;5025394;28;45577;-75
2022/02/03 10:06:07;;;;;;;;;1.67;1.67;;;;;23.15;52.72;101582.38;5028164;28;45665;-75
2022/02/03 10:08:34;;;;;;;;;3.00;1.33;;;;;23.20;52.38;101573.81;5027486;28;46051;-71
2022/02/03 10:11:14;;;;;;;;;4.33;1.67;;;;;23.25;52.29;101570.66;5050415;27;45528;-71
2022/02/03 10:13:42;;;;;;;;;2.00;2.00;;;;;23.27;52.01;101574.09;5035445;28;45613;-71
2022/02/03 10:16:07;;;;;;;;;2.00;2.00;;;;;23.26;52.13;101559.69;5026697;28;45494;-73
2022/02/03 10:18:32;;;;;;;;;3.00;3.00;;;;;23.30;51.94;101571.09;5030734;28;45448;-72
2022/02/03 10:21:00;;;;;;;;;3.67;2.67;;;;;23.30;52.12;101561.09;5030331;28;45495;-73
2022/02/03 10:23:28;;;;;;;;;4.33;2.33;;;;;23.30;51.92;101555.69;5030762;28;45372;-72
2022/02/03 10:26:05;;;;;;;;;3.67;3.00;;;;;23.28;51.61;101552.28;5028880;28;45399;-73
2022/02/03 10:28:31;;;;;;;;;2.67;2.67;;;;;23.32;51.84;101557.38;5029331;28;51838;-74
2022/02/03 10:31:05;;;;;;;;;3.00;2.00;;;;;23.27;51.82;101560.53;5028217;28;45421;-74
2022/02/03 10:33:34;;;;;;;;;2.00;2.00;;;;;23.30;51.91;101571.94;5030357;28;46377;-72
2022/02/03 10:36:05;;;;;;;;;4.33;2.00;;;;;23.29;51.93;101572.94;5030003;28;45692;-75
2022/02/03 10:41:25;;;;;;;;;3.00;2.33;;;;;23.28;51.96;101586.63;5027569;28;45614;-76
2022/02/03 11:07:36;;;;;;;;;3.33;3.33;;;;;23.20;51.57;101571.09;5006229;28;46693;-73
2022/02/03 11:10:39;;;;;;;;;2.00;2.00;;;;;23.19;51.44;101565.81;4999385;28;46215;-74
2022/02/03 11:12:55;;;;;;;;;2.00;2.00;;;;;23.14;51.04;101552.75;5003890;28;45681;-73
2022/02/03 11:15:24;;;;;;;;;4.00;2.67;;;;;23.12;50.77;101547.47;5007249;28;46060;-73
2022/02/03 11:17:51;;;;;;;;;5.33;4.33;;;;;23.09;50.88;101552.34;5005069;28;45641;-75
2022/02/03 11:20:20;;;;;;;;;3.67;3.67;;;;;23.06;50.93;101544.47;5003799;28;47386;-73
2022/02/03 11:25:48;;;;;;;;;2.00;2.00;;;;;22.96;50.10;101523.69;4942745;28;45643;-72
2022/02/03 11:28:40;;;;;;;;;2.00;2.00;;;;;22.91;50.77;101517.88;4949012;28;45573;-72
2022/02/03 11:32:08;;;;;;;;;1.67;1.67;;;;;22.88;50.55;101515.44;4948837;28;46255;-73
2022/02/03 11:43:03;;;;;;;;;1.67;1.67;;;;;22.84;50.24;101511.34;4925972;28;50884;-75
2022/02/03 11:58:59;;;;;;;;;3.00;3.00;;;;;23.06;49.60;101490.34;4984395;28;45565;-75
2022/02/03 12:01:46;;;;;;;;;2.00;1.67;;;;;23.08;49.55;101480.19;4976098;28;46026;-71
2022/02/03 12:04:38;;;;;;;;;5.00;5.00;;;;;23.12;49.50;101489.75;5031495;27;45851;-72
2022/02/03 12:07:25;;;;;;;;;3.00;3.00;;;;;23.16;49.86;101486.59;5046186;27;45418;-72
2022/02/03 12:18:15;;;;;;;;;2.67;1.00;;;;;23.36;49.43;101491.97;5050307;27;45446;-73
2022/02/03 12:24:01;;;;;;;;;3.33;2.33;;;;;23.45;49.25;101482.09;5047564;27;45583;-72
2022/02/03 12:29:04;;;;;;;;;3.00;2.00;;;;;23.50;49.49;101463.50;5059330;27;45464;-73
2022/02/03 12:39:35;;;;;;;;;8.00;6.00;;;;;23.29;46.83;101451.06;5051849;27;49293;-73
2022/02/03 12:42:05;;;;;;;;;10.33;8.00;;;;;23.23;46.92;101451.66;5052890;27;45671;-72
2022/02/03 12:44:35;;;;;;;;;7.33;5.33;;;;;23.15;46.92;101457.81;5053612;27;48557;-72
2022/02/03 12:47:04;;;;;;;;;8.33;8.33;;;;;23.08;46.01;101462.13;5051563;27;45700;-73
2022/02/03 12:49:30;;;;;;;;;11.33;8.00;;;;;22.98;45.14;101462.16;5051850;27;45655;-74
2022/02/03 12:51:56;;;;;;;;;10.33;9.00;;;;;22.90;45.50;101460.16;5040892;27;45478;-74
2022/02/03 12:54:22;;;;;;;;;7.67;7.00;;;;;22.82;45.38;101456.50;5051276;27;45469;-74
2022/02/03 12:56:47;;;;;;;;;8.67;7.00;;;;;22.77;45.83;101456.94;5039804;27;45565;-73
2022/02/03 12:59:15;;;;;;;;;8.00;6.67;;;;;22.66;45.51;101443.56;5047493;28;45507;-74
2022/02/03 13:01:43;;;;;;;;;8.00;5.67;;;;;22.62;46.04;101449.28;5050171;27;45505;-73
2022/02/03 13:04:10;;;;;;;;;6.67;6.67;;;;;22.57;45.94;101440.75;5043964;27;45534;-74
2022/02/03 13:06:41;;;;;;;;;7.00;7.00;;;;;22.51;46.09;101444.84;5046403;28;46166;-73
2022/02/03 13:09:08;;;;;;;;;8.67;7.00;;;;;22.47;45.96;101431.75;5053823;27;45684;-73
2022/02/03 13:16:35;;;;;;;;;9.00;6.67;;;;;22.45;46.55;101429.22;5048037;27;45885;-75
2022/02/03 13:19:29;;;;;;;;;7.00;7.00;;;;;22.56;46.42;101424.66;5044700;28;45463;-74
2022/02/03 13:26:57;;;;;;;;;8.33;7.33;;;;;22.75;46.88;101408.38;5042409;27;46060;-74
2022/02/03 13:29:42;;;;;;;;;8.00;6.67;;;;;22.85;46.78;101410.19;5042459;27;48538;-75
2022/02/03 13:32:14;;;;;;;;;6.00;5.00;;;;;22.92;46.99;101415.88;5045979;27;47100;-72
2022/02/03 13:34:55;;;;;;;;;8.00;6.00;;;;;22.88;47.18;101396.34;5051602;27;45719;-76
2022/02/03 13:37:32;;;;;;;;;5.67;4.00;;;;;23.03;47.21;101408.44;5047681;27;50745;-75
2022/02/03 13:40:11;;;;;;;;;5.67;4.33;;;;;23.12;47.57;101411.22;5035702;27;45589;-75
2022/02/03 13:42:46;;;;;;;;;4.00;3.67;;;;;23.19;47.33;101415.03;5050962;27;45462;-75
2022/02/03 13:45:15;;;;;;;;;5.67;4.33;;;;;23.25;47.34;101403.59;5049018;27;45702;-76
2022/02/03 13:47:41;;;;;;;;;6.67;5.00;;;;;23.29;47.38;101413.13;5047124;27;45383;-74
2022/02/03 13:50:28;;;;;;;;;6.00;4.00;;;;;23.39;47.48;101410.41;5038543;28;45536;-75
2022/02/03 14:12:40;;;;;;;;;8.67;7.00;;;;;23.70;47.66;101411.91;5031536;28;48746;-75
2022/02/03 14:21:58;;;;;;;;;6.33;5.00;;;;;23.72;47.64;101392.78;5028108;28;45448;-74
2022/02/03 14:29:41;;;;;;;;;15.67;12.67;;;;;23.64;45.80;101389.00;5023282;28;46236;-75
2022/02/03 14:32:08;;;;;;;;;14.00;12.00;;;;;23.54;45.49;101386.34;5024685;28;46078;-75
2022/02/03 14:34:35;;;;;;;;;10.67;8.00;;;;;23.44;45.58;101385.56;5022769;28;45514;-80
2022/02/03 14:40:04;;;;;;;;;16.00;11.00;;;;;23.33;45.31;101397.47;5019276;28;46574;-74
2022/02/03 14:42:23;;;;;;;;;14.00;11.33;;;;;23.23;45.28;101381.25;5027810;28;49711;-74
2022/02/03 14:44:49;;;;;;;;;15.33;13.00;;;;;23.23;45.15;101381.25;5028108;28;45570;-76
2022/02/03 14:47:15;;;;;;;;;13.00;12.00;;;;;23.19;44.96;101389.81;5025437;28;46022;-75
2022/02/03 14:49:43;;;;;;;;;11.67;10.33;;;;;23.13;45.20;101381.28;5029441;28;46281;-73
2022/02/03 16:17:06;;;;;;;;;47.00;39.25;;;;;18.91;51.16;101374.88;5000745;28;46215;-74
2022/02/03 16:19:47;;;;;;;;;48.25;40.50;;;;;19.05;50.67;101361.22;5001622;28;46691;-74
2022/02/03 16:25:10;;;;;;;;;40.25;35.25;;;;;19.59;50.85;101373.97;4928872;28;45724;-73
2022/02/03 16:54:44;;;;;;;;;33.00;29.50;;;;;21.93;47.38;101365.50;4921131;28;45666;-73
2022/02/03 16:57:16;;;;;;;;;33.00;29.00;;;;;21.96;46.12;101367.91;4927261;28;46325;-72
2022/02/03 17:00:16;;;;;;;;;28.75;24.75;;;;;21.97;45.74;101366.94;4925582;28;45431;-72
2022/02/03 17:02:33;;;;;;;;;26.50;25.00;;;;;21.98;45.60;101373.16;4950028;28;45709;-74
2022/02/03 17:04:58;;;;;;;;;30.00;25.50;;;;;21.96;45.69;101372.47;4961123;28;45791;-73
2022/02/03 17:07:24;;;;;;;;;25.00;23.50;;;;;21.96;46.09;101373.31;4964835;28;46203;-76
2022/02/03 17:09:52;;;;;;;;;26.75;24.25;;;;;21.94;45.78;101364.50;4964550;28;45617;-75
2022/02/03 17:12:18;;;;;;;;;30.50;26.00;;;;;21.97;45.71;101361.53;4964763;28;45722;-76
2022/02/03 17:14:44;;;;;;;;;35.75;30.00;;;;;21.96;45.63;101376.00;4963405;28;45545;-75
2022/02/03 17:17:11;;;;;;;;;36.00;31.00;;;;;21.96;45.64;101376.00;4959119;28;47242;-74
2022/02/03 17:19:37;;;;;;;;;41.50;31.50;;;;;21.97;45.82;101377.75;4961104;28;46075;-73
2022/02/03 17:22:04;;;;;;;;;40.00;32.25;;;;;21.97;45.25;101374.16;4962019;28;45504;-73
2022/02/03 17:24:29;;;;;;;;;34.75;30.75;;;;;21.96;45.61;101370.59;4956133;28;45561;-73
2022/02/03 17:29:39;;;;;;;;;31.75;27.00;;;;;22.07;45.68;101379.59;5011798;28;49416;-73
2022/02/03 17:32:20;;;;;;;;;30.75;27.50;;;;;22.15;46.16;101392.38;5010126;28;45388;-73
2022/02/03 17:52:29;;;;;;;;;30.33;26.33;;;;;22.75;45.34;101402.09;5012051;28;45745;-72
